Aurora, CO (80011)

2:06 PM MDT on August 27, 2015 (GMT -0600)
Arapahoe2 | | Change Station
CLOSE
Current Station
Personal Weather Station
Location: Aurora, CO
Elevation: 5531 ft
Nearby Weather Stations

Elev 5531 ft 39.73 °N, 104.77 °W | Updated 13 seconds ago

Mostly Cloudy
Mostly Cloudy
83.1 °F
Feels Like 81 °F
N
4.0
Wind Variable Wind from WNW
Gusts 11.0 mph

Today
High -- | Low -- °F
--% Chance of Precip.
Yesterday
High -- | Low -- °F
Precip. -- in
6:22 AM 7:38 PM
Waxing Gibbous, 94% visible
Pressure 29.91 in
Visibility 10.0 miles
Clouds Scattered Clouds 8000 ft
Mostly Cloudy 11000 ft
Mostly Cloudy 22000 ft
Heat Index 81 °F
Dew Point 49 °F
Humidity 31%
Rainfall 0.00 in
Snow Depth Not available.
UV 5 out of 12
Pollen 9.80 out of 12
Air Quality Not available.
Flu Activity Not available.
METAR KBKF 271958Z 29008KT 10SM SCT080 BKN110 BKN220 28/09 A3014 RMK AO2A SLP127 T02760089
Pressure 29.91 in
Visibility 10.0 miles
Clouds Scattered Clouds 8000 ft
Mostly Cloudy 11000 ft
Mostly Cloudy 22000 ft
Heat Index 81 °F
Dew Point 49 °F
Humidity 31%
Rainfall 0.00 in
Snow Depth Not available.
UV 5 out of 12
Pollen 9.80 out of 12
Air Quality Not available.
Flu Activity Not available.
METAR KBKF 271958Z 29008KT 10SM SCT080 BKN110 BKN220 28/09 A3014 RMK AO2A SLP127 T02760089

10-Day Weather Forecast

×

Almanac

Astronomy

Aug. 27, 2015 Rise Set
Actual Time
Civil Twilight
Nautical Twilight
Astronomical Twilight
Moon
Length of Visible Light
Length of Day
Tomorrow will be .
, % of the Moon is Illuminated

Today's Extremes

State Highs State Lows

Community

WunderPhotos

Upload Photos

1,850,200 photos uploaded!

WunderBlogs® & News

Nearby

Air Quality

  Air Quality AQ Index Pollutant
Not available.

Snow Depth

Station Depth Elevation

Earthquake Activity

City Distance Mag. Time & Date
Minimum magnitude displayed is 2.5.

Coastal Water Temperatures

Place Temperature

Stations

Nearby Weather Stations

Station Location Temp. Windchill Dew Point Humidity Wind Precip. Elev Updated Type